sensor_id;sensor_type;location;lat;lon;timestamp;pressure;altitude;pressure_sealevel;temperature;humidity
71424;BME280;59240;51.370;-0.486;2023-07-30T00:02:33;100815.28;;;17.60;59.62
71424;BME280;59240;51.370;-0.486;2023-07-30T00:07:30;100825.06;;;17.75;59.93
71424;BME280;59240;51.370;-0.486;2023-07-30T00:12:26;100836.13;;;17.82;60.17
71424;BME280;59240;51.370;-0.486;2023-07-30T00:17:23;100838.69;;;17.83;60.10
71424;BME280;59240;51.370;-0.486;2023-07-30T00:22:20;100832.97;;;17.92;60.35
71424;BME280;59240;51.370;-0.486;2023-07-30T00:27:19;100815.44;;;17.91;60.34
71424;BME280;59240;51.370;-0.486;2023-07-30T00:32:19;100833.56;;;17.97;60.80
71424;BME280;59240;51.370;-0.486;2023-07-30T00:37:15;100832.66;;;17.98;60.65
71424;BME280;59240;51.370;-0.486;2023-07-30T00:42:12;100810.50;;;17.85;61.13
71424;BME280;59240;51.370;-0.486;2023-07-30T00:47:09;100822.09;;;17.98;61.51
71424;BME280;59240;51.370;-0.486;2023-07-30T00:52:06;100822.09;;;17.98;61.70
71424;BME280;59240;51.370;-0.486;2023-07-30T00:57:04;100814.97;;;18.00;61.73
71424;BME280;59240;51.370;-0.486;2023-07-30T01:02:02;100813.09;;;18.02;61.43
71424;BME280;59240;51.370;-0.486;2023-07-30T01:06:59;100833.34;;;18.02;61.77
71424;BME280;59240;51.370;-0.486;2023-07-30T01:11:57;100830.94;;;17.97;61.90
71424;BME280;59240;51.370;-0.486;2023-07-30T01:16:54;100831.09;;;17.94;62.04
71424;BME280;59240;51.370;-0.486;2023-07-30T01:21:51;100831.28;;;17.91;62.22
71424;BME280;59240;51.370;-0.486;2023-07-30T01:26:55;100833.41;;;17.83;62.54
71424;BME280;59240;51.370;-0.486;2023-07-30T01:31:56;100824.91;;;17.78;62.90
71424;BME280;59240;51.370;-0.486;2023-07-30T01:36:54;100827.69;;;17.75;62.92
71424;BME280;59240;51.370;-0.486;2023-07-30T01:41:54;100839.94;;;17.76;62.60
71424;BME280;59240;51.370;-0.486;2023-07-30T01:46:51;100814.03;;;17.67;62.72
71424;BME280;59240;51.370;-0.486;2023-07-30T01:51:48;100843.97;;;17.83;62.83
71424;BME280;59240;51.370;-0.486;2023-07-30T01:56:45;100825.94;;;17.57;63.02
71424;BME280;59240;51.370;-0.486;2023-07-30T02:01:43;100844.59;;;17.71;63.09
71424;BME280;59240;51.370;-0.486;2023-07-30T02:06:40;100848.00;;;17.73;63.22
71424;BME280;59240;51.370;-0.486;2023-07-30T02:11:36;100846.31;;;17.72;63.35
71424;BME280;59240;51.370;-0.486;2023-07-30T02:16:34;100854.22;;;17.72;63.33
71424;BME280;59240;51.370;-0.486;2023-07-30T02:21:31;100855.75;;;17.76;63.66
71424;BME280;59240;51.370;-0.486;2023-07-30T02:26:29;100834.34;;;17.65;63.59
71424;BME280;59240;51.370;-0.486;2023-07-30T02:31:26;100847.06;;;17.74;63.56
71424;BME280;59240;51.370;-0.486;2023-07-30T02:36:23;100852.97;;;17.79;63.56
71424;BME280;59240;51.370;-0.486;2023-07-30T02:41:20;100859.22;;;17.76;63.72
71424;BME280;59240;51.370;-0.486;2023-07-30T02:46:17;100866.06;;;17.81;63.83
71424;BME280;59240;51.370;-0.486;2023-07-30T02:51:14;100863.59;;;17.77;63.80
71424;BME280;59240;51.370;-0.486;2023-07-30T02:56:11;100848.94;;;17.72;63.75
71424;BME280;59240;51.370;-0.486;2023-07-30T03:01:07;100852.97;;;17.79;63.79
71424;BME280;59240;51.370;-0.486;2023-07-30T03:06:05;100831.72;;;17.65;63.68
71424;BME280;59240;51.370;-0.486;2023-07-30T03:11:01;100843.31;;;17.61;63.88
71424;BME280;59240;51.370;-0.486;2023-07-30T03:15:58;100854.41;;;17.67;63.74
71424;BME280;59240;51.370;-0.486;2023-07-30T03:21:02;100867.88;;;17.61;63.98
71424;BME280;59240;51.370;-0.486;2023-07-30T03:26:00;100860.44;;;17.52;63.30
71424;BME280;59240;51.370;-0.486;2023-07-30T03:30:57;100862.75;;;17.41;63.46
71424;BME280;59240;51.370;-0.486;2023-07-30T03:35:53;100855.97;;;17.35;63.45
71424;BME280;59240;51.370;-0.486;2023-07-30T03:40:50;100865.41;;;17.22;63.79
71424;BME280;59240;51.370;-0.486;2023-07-30T03:45:47;100866.78;;;17.12;64.18
71424;BME280;59240;51.370;-0.486;2023-07-30T03:50:45;100862.38;;;16.93;64.39
71424;BME280;59240;51.370;-0.486;2023-07-30T03:55:42;100878.16;;;16.93;64.60
71424;BME280;59240;51.370;-0.486;2023-07-30T04:00:39;100874.28;;;16.83;64.90
71424;BME280;59240;51.370;-0.486;2023-07-30T04:05:36;100886.88;;;16.77;65.30
71424;BME280;59240;51.370;-0.486;2023-07-30T04:10:33;100886.13;;;16.73;65.70
71424;BME280;59240;51.370;-0.486;2023-07-30T04:15:29;100882.81;;;16.70;66.13
71424;BME280;59240;51.370;-0.486;2023-07-30T04:20:26;100895.13;;;16.67;66.12
71424;BME280;59240;51.370;-0.486;2023-07-30T04:25:23;100891.59;;;16.68;66.70
71424;BME280;59240;51.370;-0.486;2023-07-30T04:30:20;100896.81;;;16.70;66.75
71424;BME280;59240;51.370;-0.486;2023-07-30T04:35:17;100889.69;;;16.72;67.36
71424;BME280;59240;51.370;-0.486;2023-07-30T04:40:14;100888.00;;;16.71;66.87
71424;BME280;59240;51.370;-0.486;2023-07-30T04:45:10;100895.06;;;16.69;67.06
71424;BME280;59240;51.370;-0.486;2023-07-30T04:50:07;100902.16;;;16.67;67.37
71424;BME280;59240;51.370;-0.486;2023-07-30T04:55:05;100909.28;;;16.65;67.29
71424;BME280;59240;51.370;-0.486;2023-07-30T05:00:02;100900.69;;;16.61;67.79
71424;BME280;59240;51.370;-0.486;2023-07-30T05:04:59;100909.28;;;16.65;67.83
71424;BME280;59240;51.370;-0.486;2023-07-30T05:09:56;100908.34;;;16.66;68.28
71424;BME280;59240;51.370;-0.486;2023-07-30T05:14:52;100921.34;;;16.71;68.07
71424;BME280;59240;51.370;-0.486;2023-07-30T05:19:49;100937.78;;;16.76;68.11
71424;BME280;59240;51.370;-0.486;2023-07-30T05:24:46;100927.94;;;16.79;68.33
71424;BME280;59240;51.370;-0.486;2023-07-30T05:29:43;100924.38;;;16.80;68.56
71424;BME280;59240;51.370;-0.486;2023-07-30T05:34:43;100928.94;;;17.14;68.51
71424;BME280;59240;51.370;-0.486;2023-07-30T05:39:40;100929.31;;;17.62;67.46
71424;BME280;59240;51.370;-0.486;2023-07-30T05:44:37;100937.28;;;17.96;66.75
71424;BME280;59240;51.370;-0.486;2023-07-30T05:49:33;100921.16;;;18.02;66.26
71424;BME280;59240;51.370;-0.486;2023-07-30T05:54:30;100948.94;;;18.27;65.81
71424;BME280;59240;51.370;-0.486;2023-07-30T05:59:27;100927.72;;;18.46;65.52
71424;BME280;59240;51.370;-0.486;2023-07-30T06:04:24;100934.75;;;18.63;65.17
71424;BME280;59240;51.370;-0.486;2023-07-30T06:09:21;100922.00;;;18.38;65.20
71424;BME280;59240;51.370;-0.486;2023-07-30T06:14:18;100950.06;;;18.39;65.47
71424;BME280;59240;51.370;-0.486;2023-07-30T06:19:14;100966.28;;;18.31;65.66
71424;BME280;59240;51.370;-0.486;2023-07-30T06:24:11;100964.75;;;18.27;65.65
71424;BME280;59240;51.370;-0.486;2023-07-30T06:29:08;100958.09;;;18.20;65.79
71424;BME280;59240;51.370;-0.486;2023-07-30T06:34:05;100970.47;;;18.18;65.92
71424;BME280;59240;51.370;-0.486;2023-07-30T06:39:02;100968.34;;;18.26;65.85
71424;BME280;59240;51.370;-0.486;2023-07-30T06:44:00;100980.28;;;18.33;65.95
71424;BME280;59240;51.370;-0.486;2023-07-30T06:48:56;100968.47;;;18.23;65.74
71424;BME280;59240;51.370;-0.486;2023-07-30T06:53:53;100980.41;;;18.30;66.07
71424;BME280;59240;51.370;-0.486;2023-07-30T06:58:50;100948.72;;;18.14;65.55
71424;BME280;59240;51.370;-0.486;2023-07-30T07:03:47;100979.72;;;18.26;65.75
71424;BME280;59240;51.370;-0.486;2023-07-30T07:08:44;100968.44;;;18.57;65.80
71424;BME280;59240;51.370;-0.486;2023-07-30T07:13:41;100968.91;;;18.99;65.17
71424;BME280;59240;51.370;-0.486;2023-07-30T07:18:37;100975.78;;;19.50;64.38
71424;BME280;59240;51.370;-0.486;2023-07-30T07:23:34;100971.81;;;19.89;63.52
71424;BME280;59240;51.370;-0.486;2023-07-30T07:28:31;100981.97;;;20.27;61.61
71424;BME280;59240;51.370;-0.486;2023-07-30T07:33:28;100972.94;;;20.45;61.05
71424;BME280;59240;51.370;-0.486;2023-07-30T07:38:25;100999.28;;;20.91;60.04
71424;BME280;59240;51.370;-0.486;2023-07-30T07:43:22;100992.09;;;21.21;58.67
71424;BME280;59240;51.370;-0.486;2023-07-30T07:48:19;101016.41;;;21.42;57.29
71424;BME280;59240;51.370;-0.486;2023-07-30T07:53:15;101007.19;;;21.62;56.16
71424;BME280;59240;51.370;-0.486;2023-07-30T07:58:12;101005.19;;;21.93;55.73
71424;BME280;59240;51.370;-0.486;2023-07-30T08:03:09;100988.09;;;22.11;54.52
71424;BME280;59240;51.370;-0.486;2023-07-30T08:08:06;101003.22;;;22.09;53.79
71424;BME280;59240;51.370;-0.486;2023-07-30T08:13:03;101013.69;;;21.98;54.16
71424;BME280;59240;51.370;-0.486;2023-07-30T08:17:59;101000.09;;;21.90;53.02
71424;BME280;59240;51.370;-0.486;2023-07-30T08:22:56;101008.28;;;21.72;52.91
71424;BME280;59240;51.370;-0.486;2023-07-30T08:27:53;100986.16;;;21.59;53.35
71424;BME280;59240;51.370;-0.486;2023-07-30T08:32:50;101003.47;;;22.19;52.81
71424;BME280;59240;51.370;-0.486;2023-07-30T08:37:47;101012.88;;;22.62;51.58
71424;BME280;59240;51.370;-0.486;2023-07-30T08:42:45;101019.59;;;22.81;50.33
71424;BME280;59240;51.370;-0.486;2023-07-30T08:47:41;101028.53;;;22.80;50.14
71424;BME280;59240;51.370;-0.486;2023-07-30T08:52:39;101009.41;;;22.87;49.66
71424;BME280;59240;51.370;-0.486;2023-07-30T08:57:37;101014.72;;;22.87;49.14
71424;BME280;59240;51.370;-0.486;2023-07-30T09:07:38;100994.06;;;23.29;47.78
71424;BME280;59240;51.370;-0.486;2023-07-30T09:12:35;101017.59;;;23.46;47.87
71424;BME280;59240;51.370;-0.486;2023-07-30T09:17:33;101014.06;;;23.95;47.98
71424;BME280;59240;51.370;-0.486;2023-07-30T09:22:32;101014.97;;;24.42;46.42
71424;BME280;59240;51.370;-0.486;2023-07-30T09:27:37;101008.47;;;24.69;45.45
71424;BME280;59240;51.370;-0.486;2023-07-30T09:32:34;101014.56;;;24.93;44.67
71424;BME280;59240;51.370;-0.486;2023-07-30T09:37:33;101019.19;;;24.91;44.17
71424;BME280;59240;51.370;-0.486;2023-07-30T09:42:32;101011.16;;;24.58;43.85
71424;BME280;59240;51.370;-0.486;2023-07-30T09:47:36;100993.53;;;24.09;43.94
71424;BME280;59240;51.370;-0.486;2023-07-30T09:52:34;101013.94;;;24.32;45.87
71424;BME280;59240;51.370;-0.486;2023-07-30T09:57:31;101012.34;;;24.53;45.39
71424;BME280;59240;51.370;-0.486;2023-07-30T10:02:28;101010.84;;;24.38;44.87
71424;BME280;59240;51.370;-0.486;2023-07-30T10:07:28;101013.81;;;23.98;45.18
71424;BME280;59240;51.370;-0.486;2023-07-30T10:12:32;101011.50;;;23.70;45.71
71424;BME280;59240;51.370;-0.486;2023-07-30T10:17:32;101044.59;;;23.53;46.22
71424;BME280;59240;51.370;-0.486;2023-07-30T10:22:31;101039.25;;;23.16;46.91
71424;BME280;59240;51.370;-0.486;2023-07-30T10:27:41;101038.72;;;22.99;47.94
71424;BME280;59240;51.370;-0.486;2023-07-30T10:37:52;101035.66;;;23.05;48.44
71424;BME280;59240;51.370;-0.486;2023-07-30T10:42:48;101031.94;;;23.20;48.63
71424;BME280;59240;51.370;-0.486;2023-07-30T10:47:45;101024.69;;;23.09;49.09
71424;BME280;59240;51.370;-0.486;2023-07-30T10:52:43;101035.00;;;23.14;49.64
71424;BME280;59240;51.370;-0.486;2023-07-30T10:57:39;101027.78;;;23.16;50.30
71424;BME280;59240;51.370;-0.486;2023-07-30T11:02:39;101030.44;;;23.16;50.56
71424;BME280;59240;51.370;-0.486;2023-07-30T11:07:36;101027.69;;;22.92;51.11
71424;BME280;59240;51.370;-0.486;2023-07-30T11:12:32;101003.44;;;22.46;52.13
71424;BME280;59240;51.370;-0.486;2023-07-30T11:17:29;101041.34;;;22.48;52.95
71424;BME280;59240;51.370;-0.486;2023-07-30T11:22:30;101057.75;;;22.27;54.17
71424;BME280;59240;51.370;-0.486;2023-07-30T11:27:28;101053.63;;;22.09;54.84
71424;BME280;59240;51.370;-0.486;2023-07-30T11:32:27;101032.75;;;21.90;55.74
71424;BME280;59240;51.370;-0.486;2023-07-30T11:37:24;101042.00;;;21.70;56.33
71424;BME280;59240;51.370;-0.486;2023-07-30T11:42:21;101031.63;;;21.53;57.14
71424;BME280;59240;51.370;-0.486;2023-07-30T11:47:21;101048.00;;;21.45;58.84
71424;BME280;59240;51.370;-0.486;2023-07-30T11:52:19;101042.72;;;21.45;59.03
71424;BME280;59240;51.370;-0.486;2023-07-30T11:57:16;101020.19;;;21.38;59.71
71424;BME280;59240;51.370;-0.486;2023-07-30T12:02:21;101043.41;;;21.35;61.42
71424;BME280;59240;51.370;-0.486;2023-07-30T12:07:23;101033.09;;;21.30;62.65
71424;BME280;59240;51.370;-0.486;2023-07-30T12:12:25;101036.56;;;21.16;63.22
71424;BME280;59240;51.370;-0.486;2023-07-30T12:17:22;101032.38;;;20.98;63.50
71424;BME280;59240;51.370;-0.486;2023-07-30T12:22:19;101027.19;;;20.82;64.36
71424;BME280;59240;51.370;-0.486;2023-07-30T12:27:15;101027.81;;;20.71;65.03
71424;BME280;59240;51.370;-0.486;2023-07-30T12:32:12;100994.53;;;20.53;66.09
71424;BME280;59240;51.370;-0.486;2023-07-30T12:37:09;100992.53;;;20.57;66.52
71424;BME280;59240;51.370;-0.486;2023-07-30T12:42:06;101008.56;;;20.84;66.82
71424;BME280;59240;51.370;-0.486;2023-07-30T12:47:03;100989.44;;;20.79;67.68
71424;BME280;59240;51.370;-0.486;2023-07-30T12:52:00;101021.03;;;21.10;67.79
71424;BME280;59240;51.370;-0.486;2023-07-30T12:56:57;101014.03;;;21.23;67.29
71424;BME280;59240;51.370;-0.486;2023-07-30T13:01:57;100987.81;;;21.19;67.44
71424;BME280;59240;51.370;-0.486;2023-07-30T13:06:55;101006.66;;;21.43;67.56
71424;BME280;59240;51.370;-0.486;2023-07-30T13:11:52;100995.69;;;21.62;66.95
71424;BME280;59240;51.370;-0.486;2023-07-30T13:16:48;100981.75;;;21.72;66.82
71424;BME280;59240;51.370;-0.486;2023-07-30T13:21:45;100973.13;;;21.83;66.98
71424;BME280;59240;51.370;-0.486;2023-07-30T13:26:42;100954.72;;;21.80;67.70
71424;BME280;59240;51.370;-0.486;2023-07-30T13:31:39;100981.19;;;21.67;67.96
71424;BME280;59240;51.370;-0.486;2023-07-30T13:36:36;100976.34;;;21.47;68.66
71424;BME280;59240;51.370;-0.486;2023-07-30T13:41:33;100986.88;;;21.34;69.58
71424;BME280;59240;51.370;-0.486;2023-07-30T13:46:32;100976.75;;;21.12;70.46
71424;BME280;59240;51.370;-0.486;2023-07-30T13:51:29;100980.84;;;21.03;71.92
71424;BME280;59240;51.370;-0.486;2023-07-30T13:56:29;100986.41;;;20.99;72.30
71424;BME280;59240;51.370;-0.486;2023-07-30T14:01:26;100980.09;;;20.73;75.17
71424;BME280;59240;51.370;-0.486;2023-07-30T14:06:23;100973.47;;;20.66;78.51
71424;BME280;59240;51.370;-0.486;2023-07-30T14:11:20;100977.25;;;20.62;80.03
71424;BME280;59240;51.370;-0.486;2023-07-30T14:16:17;100975.06;;;20.54;82.42
71424;BME280;59240;51.370;-0.486;2023-07-30T14:21:14;100937.59;;;20.32;84.39
71424;BME280;59240;51.370;-0.486;2023-07-30T14:26:11;100973.53;;;20.50;85.63
71424;BME280;59240;51.370;-0.486;2023-07-30T14:31:07;100944.81;;;20.14;91.64
71424;BME280;59240;51.370;-0.486;2023-07-30T14:36:04;100971.91;;;20.17;93.48
71424;BME280;59240;51.370;-0.486;2023-07-30T14:41:01;100986.09;;;20.16;95.00
71424;BME280;59240;51.370;-0.486;2023-07-30T14:45:58;100964.97;;;20.01;95.97
71424;BME280;59240;51.370;-0.486;2023-07-30T14:50:55;100999.41;;;20.15;97.02
71424;BME280;59240;51.370;-0.486;2023-07-30T14:55:52;101002.50;;;20.07;96.66
71424;BME280;59240;51.370;-0.486;2023-07-30T15:00:49;100999.31;;;19.86;98.33
71424;BME280;59240;51.370;-0.486;2023-07-30T15:05:46;100965.47;;;19.61;98.75
71424;BME280;59240;51.370;-0.486;2023-07-30T15:10:43;100981.50;;;19.58;98.69
71424;BME280;59240;51.370;-0.486;2023-07-30T15:15:40;101007.69;;;19.79;100.00
71424;BME280;59240;51.370;-0.486;2023-07-30T15:20:37;101023.88;;;19.73;100.00
71424;BME280;59240;51.370;-0.486;2023-07-30T15:25:34;101014.16;;;19.57;100.00
71424;BME280;59240;51.370;-0.486;2023-07-30T15:30:31;101010.72;;;19.24;100.00
71424;BME280;59240;51.370;-0.486;2023-07-30T15:35:28;101020.38;;;19.07;100.00
71424;BME280;59240;51.370;-0.486;2023-07-30T15:40:25;101003.03;;;18.86;100.00
71424;BME280;59240;51.370;-0.486;2023-07-30T15:45:22;101033.31;;;18.96;100.00
71424;BME280;59240;51.370;-0.486;2023-07-30T15:50:19;101019.91;;;18.83;100.00
71424;BME280;59240;51.370;-0.486;2023-07-30T15:55:20;101035.00;;;18.97;100.00
71424;BME280;59240;51.370;-0.486;2023-07-30T16:00:17;101033.09;;;18.83;100.00
71424;BME280;59240;51.370;-0.486;2023-07-30T16:05:15;101026.75;;;18.70;100.00
71424;BME280;59240;51.370;-0.486;2023-07-30T16:10:12;101012.97;;;18.64;100.00
71424;BME280;59240;51.370;-0.486;2023-07-30T16:15:09;101039.44;;;18.97;100.00
71424;BME280;59240;51.370;-0.486;2023-07-30T16:20:06;101003.34;;;18.80;100.00
71424;BME280;59240;51.370;-0.486;2023-07-30T16:25:04;101038.72;;;18.93;100.00
71424;BME280;59240;51.370;-0.486;2023-07-30T16:30:05;101021.81;;;18.80;100.00
71424;BME280;59240;51.370;-0.486;2023-07-30T16:35:02;101045.22;;;18.88;100.00
71424;BME280;59240;51.370;-0.486;2023-07-30T16:39:59;101034.97;;;18.81;100.00
71424;BME280;59240;51.370;-0.486;2023-07-30T16:44:56;101053.31;;;19.00;100.00
71424;BME280;59240;51.370;-0.486;2023-07-30T16:49:53;101044.09;;;18.92;100.00
71424;BME280;59240;51.370;-0.486;2023-07-30T16:54:50;101057.56;;;18.70;100.00
71424;BME280;59240;51.370;-0.486;2023-07-30T16:59:47;101049.47;;;18.55;100.00
71424;BME280;59240;51.370;-0.486;2023-07-30T17:04:47;101044.69;;;18.81;100.00
71424;BME280;59240;51.370;-0.486;2023-07-30T17:09:44;101035.97;;;18.79;100.00
71424;BME280;59240;51.370;-0.486;2023-07-30T17:14:41;101044.50;;;18.84;100.00
71424;BME280;59240;51.370;-0.486;2023-07-30T17:19:38;101029.69;;;18.81;100.00
71424;BME280;59240;51.370;-0.486;2023-07-30T17:24:36;101045.75;;;18.94;100.00
71424;BME280;59240;51.370;-0.486;2023-07-30T17:29:34;101042.06;;;18.97;100.00
71424;BME280;59240;51.370;-0.486;2023-07-30T17:34:31;101032.69;;;18.91;100.00
71424;BME280;59240;51.370;-0.486;2023-07-30T17:39:28;101055.97;;;19.00;100.00
71424;BME280;59240;51.370;-0.486;2023-07-30T17:44:24;101032.88;;;18.88;100.00
71424;BME280;59240;51.370;-0.486;2023-07-30T17:49:21;101050.22;;;18.92;100.00
71424;BME280;59240;51.370;-0.486;2023-07-30T17:54:18;101046.75;;;18.92;100.00
71424;BME280;59240;51.370;-0.486;2023-07-30T17:59:15;101031.53;;;18.79;100.00
71424;BME280;59240;51.370;-0.486;2023-07-30T18:04:12;101029.59;;;18.83;100.00
71424;BME280;59240;51.370;-0.486;2023-07-30T18:09:08;101040.31;;;18.80;100.00
71424;BME280;59240;51.370;-0.486;2023-07-30T18:14:06;101031.19;;;18.70;100.00
71424;BME280;59240;51.370;-0.486;2023-07-30T18:19:04;101042.66;;;18.69;100.00
71424;BME280;59240;51.370;-0.486;2023-07-30T18:24:00;101028.38;;;18.55;100.00
71424;BME280;59240;51.370;-0.486;2023-07-30T18:28:57;101027.13;;;18.63;100.00
71424;BME280;59240;51.370;-0.486;2023-07-30T18:33:54;100991.03;;;18.46;100.00
71424;BME280;59240;51.370;-0.486;2023-07-30T18:38:51;101018.91;;;18.69;100.00
71424;BME280;59240;51.370;-0.486;2023-07-30T18:43:48;101021.97;;;18.59;100.00
71424;BME280;59240;51.370;-0.486;2023-07-30T18:48:45;101029.84;;;18.61;100.00
71424;BME280;59240;51.370;-0.486;2023-07-30T18:53:42;101047.28;;;18.64;100.00
71424;BME280;59240;51.370;-0.486;2023-07-30T18:58:39;101047.38;;;18.62;100.00
71424;BME280;59240;51.370;-0.486;2023-07-30T19:03:36;101040.78;;;18.53;100.00
71424;BME280;59240;51.370;-0.486;2023-07-30T19:08:33;100989.56;;;18.23;100.00
71424;BME280;59240;51.370;-0.486;2023-07-30T19:13:30;101029.91;;;18.42;100.00
71424;BME280;59240;51.370;-0.486;2023-07-30T19:18:27;101012.22;;;18.27;100.00
71424;BME280;59240;51.370;-0.486;2023-07-30T19:23:24;101030.13;;;18.38;100.00
71424;BME280;59240;51.370;-0.486;2023-07-30T19:28:21;101007.41;;;18.18;100.00
71424;BME280;59240;51.370;-0.486;2023-07-30T19:33:19;101042.00;;;18.29;100.00
71424;BME280;59240;51.370;-0.486;2023-07-30T19:38:16;100998.34;;;18.06;100.00
71424;BME280;59240;51.370;-0.486;2023-07-30T19:43:13;101031.94;;;18.20;100.00
71424;BME280;59240;51.370;-0.486;2023-07-30T19:48:10;101028.19;;;18.07;100.00
71424;BME280;59240;51.370;-0.486;2023-07-30T19:53:07;101050.22;;;18.06;100.00
71424;BME280;59240;51.370;-0.486;2023-07-30T19:58:30;101022.75;;;17.92;100.00
71424;BME280;59240;51.370;-0.486;2023-07-30T20:03:29;101061.63;;;18.06;100.00
71424;BME280;59240;51.370;-0.486;2023-07-30T20:08:26;101016.47;;;17.76;100.00
71424;BME280;59240;51.370;-0.486;2023-07-30T20:13:23;101048.84;;;17.97;100.00
71424;BME280;59240;51.370;-0.486;2023-07-30T20:18:21;101052.44;;;17.96;100.00
71424;BME280;59240;51.370;-0.486;2023-07-30T20:23:18;101017.50;;;17.73;100.00
71424;BME280;59240;51.370;-0.486;2023-07-30T20:28:17;101020.22;;;17.72;100.00
71424;BME280;59240;51.370;-0.486;2023-07-30T20:33:14;101030.84;;;17.69;100.00
71424;BME280;59240;51.370;-0.486;2023-07-30T20:38:11;101048.09;;;17.76;100.00
71424;BME280;59240;51.370;-0.486;2023-07-30T20:43:08;101008.03;;;17.50;100.00
71424;BME280;59240;51.370;-0.486;2023-07-30T20:48:05;101027.44;;;17.67;100.00
71424;BME280;59240;51.370;-0.486;2023-07-30T20:53:02;101005.38;;;17.50;100.00
71424;BME280;59240;51.370;-0.486;2023-07-30T20:57:59;101021.03;;;17.54;100.00
71424;BME280;59240;51.370;-0.486;2023-07-30T21:02:56;101009.09;;;17.46;100.00
71424;BME280;59240;51.370;-0.486;2023-07-30T21:07:53;100999.56;;;17.44;100.00
71424;BME280;59240;51.370;-0.486;2023-07-30T21:12:50;101002.88;;;17.47;100.00
71424;BME280;59240;51.370;-0.486;2023-07-30T21:17:47;100997.91;;;17.41;100.00
71424;BME280;59240;51.370;-0.486;2023-07-30T21:22:45;101003.81;;;17.46;100.00
71424;BME280;59240;51.370;-0.486;2023-07-30T21:27:45;100976.63;;;17.27;100.00
71424;BME280;59240;51.370;-0.486;2023-07-30T21:32:43;100968.97;;;17.22;100.00
71424;BME280;59240;51.370;-0.486;2023-07-30T21:37:40;100974.94;;;17.26;100.00
71424;BME280;59240;51.370;-0.486;2023-07-30T21:42:37;100983.47;;;17.31;100.00
71424;BME280;59240;51.370;-0.486;2023-07-30T21:47:33;100983.47;;;17.31;100.00
71424;BME280;59240;51.370;-0.486;2023-07-30T21:52:30;100971.06;;;17.33;100.00
71424;BME280;59240;51.370;-0.486;2023-07-30T21:57:27;100963.94;;;17.35;100.00
71424;BME280;59240;51.370;-0.486;2023-07-30T22:02:24;100957.91;;;17.33;100.00
71424;BME280;59240;51.370;-0.486;2023-07-30T22:07:21;100951.88;;;17.31;100.00
71424;BME280;59240;51.370;-0.486;2023-07-30T22:12:18;100939.75;;;17.27;100.00
71424;BME280;59240;51.370;-0.486;2023-07-30T22:17:15;100941.34;;;17.31;100.00
71424;BME280;59240;51.370;-0.486;2023-07-30T22:22:12;100925.53;;;17.31;100.00
71424;BME280;59240;51.370;-0.486;2023-07-30T22:27:09;100908.75;;;17.15;100.00
71424;BME280;59240;51.370;-0.486;2023-07-30T22:32:06;100925.91;;;17.23;100.00
71424;BME280;59240;51.370;-0.486;2023-07-30T22:37:03;100934.38;;;17.30;100.00
71424;BME280;59240;51.370;-0.486;2023-07-30T22:42:00;100911.72;;;17.26;100.00
71424;BME280;59240;51.370;-0.486;2023-07-30T22:46:57;100910.81;;;17.27;100.00
71424;BME280;59240;51.370;-0.486;2023-07-30T22:51:53;100886.53;;;17.20;100.00
71424;BME280;59240;51.370;-0.486;2023-07-30T22:56:50;100897.06;;;17.39;100.00
71424;BME280;59240;51.370;-0.486;2023-07-30T23:01:47;100874.72;;;17.29;100.00
71424;BME280;59240;51.370;-0.486;2023-07-30T23:06:44;100893.66;;;17.37;100.00
71424;BME280;59240;51.370;-0.486;2023-07-30T23:11:41;100843.44;;;17.23;100.00
71424;BME280;59240;51.370;-0.486;2023-07-30T23:16:38;100847.53;;;17.29;100.00
71424;BME280;59240;51.370;-0.486;2023-07-30T23:21:35;100871.28;;;17.46;100.00
71424;BME280;59240;51.370;-0.486;2023-07-30T23:26:32;100870.44;;;17.45;100.00
71424;BME280;59240;51.370;-0.486;2023-07-30T23:31:29;100836.00;;;17.31;100.00
71424;BME280;59240;51.370;-0.486;2023-07-30T23:36:25;100839.13;;;17.39;100.00
71424;BME280;59240;51.370;-0.486;2023-07-30T23:41:22;100846.94;;;17.41;100.00
71424;BME280;59240;51.370;-0.486;2023-07-30T23:46:19;100836.41;;;17.41;100.00
71424;BME280;59240;51.370;-0.486;2023-07-30T23:51:16;100832.16;;;17.38;100.00
71424;BME280;59240;51.370;-0.486;2023-07-30T23:56:13;100817.34;;;17.36;100.00
